sensor_id;sensor_type;location;lat;lon;timestamp;P1;durP1;ratioP1;P2;durP2;ratioP2
9418;SDS011;4748;50.802;7.132;2023-05-07T00:00:42;1.23;;;1.23;;
9418;SDS011;4748;50.802;7.132;2023-05-07T00:03:08;0.90;;;0.90;;
9418;SDS011;4748;50.802;7.132;2023-05-07T00:05:33;0.70;;;0.70;;
9418;SDS011;4748;50.802;7.132;2023-05-07T00:07:59;0.87;;;0.87;;
9418;SDS011;4748;50.802;7.132;2023-05-07T00:10:24;0.97;;;0.83;;
9418;SDS011;4748;50.802;7.132;2023-05-07T00:12:50;1.70;;;0.97;;
9418;SDS011;4748;50.802;7.132;2023-05-07T00:15:19;0.70;;;0.70;;
9418;SDS011;4748;50.802;7.132;2023-05-07T00:17:45;1.53;;;1.20;;
9418;SDS011;4748;50.802;7.132;2023-05-07T00:20:10;1.00;;;1.00;;
9418;SDS011;4748;50.802;7.132;2023-05-07T00:22:36;1.10;;;1.00;;
9418;SDS011;4748;50.802;7.132;2023-05-07T00:25:01;1.00;;;1.00;;
9418;SDS011;4748;50.802;7.132;2023-05-07T00:27:26;4.47;;;1.17;;
9418;SDS011;4748;50.802;7.132;2023-05-07T00:29:52;1.00;;;1.00;;
9418;SDS011;4748;50.802;7.132;2023-05-07T00:32:20;0.83;;;0.70;;
9418;SDS011;4748;50.802;7.132;2023-05-07T00:34:48;1.03;;;1.03;;
9418;SDS011;4748;50.802;7.132;2023-05-07T00:37:19;1.77;;;0.80;;
9418;SDS011;4748;50.802;7.132;2023-05-07T00:39:45;10.73;;;2.80;;
9418;SDS011;4748;50.802;7.132;2023-05-07T00:42:12;4.30;;;3.63;;
9418;SDS011;4748;50.802;7.132;2023-05-07T00:44:37;2.03;;;1.93;;
9418;SDS011;4748;50.802;7.132;2023-05-07T00:47:04;2.77;;;2.07;;
9418;SDS011;4748;50.802;7.132;2023-05-07T00:49:37;3.20;;;1.57;;
9418;SDS011;4748;50.802;7.132;2023-05-07T00:52:05;2.83;;;1.80;;
9418;SDS011;4748;50.802;7.132;2023-05-07T00:54:32;1.27;;;1.17;;
9418;SDS011;4748;50.802;7.132;2023-05-07T00:56:59;0.90;;;0.90;;
9418;SDS011;4748;50.802;7.132;2023-05-07T00:59:25;2.50;;;0.90;;
9418;SDS011;4748;50.802;7.132;2023-05-07T01:01:51;10.40;;;1.47;;
9418;SDS011;4748;50.802;7.132;2023-05-07T01:04:17;2.67;;;1.03;;
9418;SDS011;4748;50.802;7.132;2023-05-07T01:06:42;0.70;;;0.70;;
9418;SDS011;4748;50.802;7.132;2023-05-07T01:09:09;0.80;;;0.80;;
9418;SDS011;4748;50.802;7.132;2023-05-07T01:11:34;0.83;;;0.70;;
9418;SDS011;4748;50.802;7.132;2023-05-07T01:14:00;4.57;;;1.07;;
9418;SDS011;4748;50.802;7.132;2023-05-07T01:16:25;0.60;;;0.60;;
9418;SDS011;4748;50.802;7.132;2023-05-07T01:18:51;0.70;;;0.70;;
9418;SDS011;4748;50.802;7.132;2023-05-07T01:21:17;0.70;;;0.63;;
9418;SDS011;4748;50.802;7.132;2023-05-07T01:23:42;1.00;;;0.60;;
9418;SDS011;4748;50.802;7.132;2023-05-07T01:26:10;1.23;;;0.53;;
9418;SDS011;4748;50.802;7.132;2023-05-07T01:28:35;1.37;;;0.90;;
9418;SDS011;4748;50.802;7.132;2023-05-07T01:31:01;2.53;;;0.90;;
9418;SDS011;4748;50.802;7.132;2023-05-07T01:33:29;0.87;;;0.70;;
9418;SDS011;4748;50.802;7.132;2023-05-07T01:35:58;2.93;;;0.80;;
9418;SDS011;4748;50.802;7.132;2023-05-07T01:38:27;1.10;;;1.00;;
9418;SDS011;4748;50.802;7.132;2023-05-07T01:40:53;0.63;;;0.63;;
9418;SDS011;4748;50.802;7.132;2023-05-07T01:43:19;0.70;;;0.70;;
9418;SDS011;4748;50.802;7.132;2023-05-07T01:45:44;0.50;;;0.50;;
9418;SDS011;4748;50.802;7.132;2023-05-07T01:48:11;0.90;;;0.60;;
9418;SDS011;4748;50.802;7.132;2023-05-07T01:50:39;1.00;;;1.00;;
9418;SDS011;4748;50.802;7.132;2023-05-07T01:53:06;0.80;;;0.80;;
9418;SDS011;4748;50.802;7.132;2023-05-07T01:55:32;0.90;;;0.90;;
9418;SDS011;4748;50.802;7.132;2023-05-07T01:57:57;0.97;;;0.97;;
9418;SDS011;4748;50.802;7.132;2023-05-07T02:00:23;2.20;;;1.07;;
9418;SDS011;4748;50.802;7.132;2023-05-07T02:02:48;0.80;;;0.80;;
9418;SDS011;4748;50.802;7.132;2023-05-07T02:05:13;4.33;;;1.13;;
9418;SDS011;4748;50.802;7.132;2023-05-07T02:07:39;0.97;;;0.90;;
9418;SDS011;4748;50.802;7.132;2023-05-07T02:10:04;0.63;;;0.63;;
9418;SDS011;4748;50.802;7.132;2023-05-07T02:12:31;1.10;;;0.80;;
9418;SDS011;4748;50.802;7.132;2023-05-07T02:14:56;0.73;;;0.73;;
9418;SDS011;4748;50.802;7.132;2023-05-07T02:17:21;1.00;;;1.00;;
9418;SDS011;4748;50.802;7.132;2023-05-07T02:19:47;0.53;;;0.53;;
9418;SDS011;4748;50.802;7.132;2023-05-07T02:22:12;2.97;;;0.93;;
9418;SDS011;4748;50.802;7.132;2023-05-07T02:24:38;3.40;;;1.00;;
9418;SDS011;4748;50.802;7.132;2023-05-07T02:27:04;0.80;;;0.80;;
9418;SDS011;4748;50.802;7.132;2023-05-07T02:29:29;0.80;;;0.80;;
9418;SDS011;4748;50.802;7.132;2023-05-07T02:31:55;1.00;;;0.73;;
9418;SDS011;4748;50.802;7.132;2023-05-07T02:34:23;0.90;;;0.90;;
9418;SDS011;4748;50.802;7.132;2023-05-07T02:36:48;1.23;;;0.80;;
9418;SDS011;4748;50.802;7.132;2023-05-07T02:39:13;1.67;;;0.80;;
9418;SDS011;4748;50.802;7.132;2023-05-07T02:41:40;0.87;;;0.60;;
9418;SDS011;4748;50.802;7.132;2023-05-07T02:44:05;1.27;;;0.77;;
9418;SDS011;4748;50.802;7.132;2023-05-07T02:46:31;0.60;;;0.60;;
9418;SDS011;4748;50.802;7.132;2023-05-07T02:49:01;1.37;;;0.80;;
9418;SDS011;4748;50.802;7.132;2023-05-07T02:51:27;1.70;;;0.97;;
9418;SDS011;4748;50.802;7.132;2023-05-07T02:53:53;1.13;;;0.90;;
9418;SDS011;4748;50.802;7.132;2023-05-07T02:56:18;3.67;;;0.73;;
9418;SDS011;4748;50.802;7.132;2023-05-07T02:58:43;1.60;;;0.80;;
9418;SDS011;4748;50.802;7.132;2023-05-07T03:01:09;0.90;;;0.90;;
9418;SDS011;4748;50.802;7.132;2023-05-07T03:03:34;0.80;;;0.80;;
9418;SDS011;4748;50.802;7.132;2023-05-07T03:06:00;0.70;;;0.70;;
9418;SDS011;4748;50.802;7.132;2023-05-07T03:08:26;0.73;;;0.70;;
9418;SDS011;4748;50.802;7.132;2023-05-07T03:10:51;0.70;;;0.70;;
9418;SDS011;4748;50.802;7.132;2023-05-07T03:13:16;2.00;;;0.80;;
9418;SDS011;4748;50.802;7.132;2023-05-07T03:15:42;4.03;;;0.73;;
9418;SDS011;4748;50.802;7.132;2023-05-07T03:18:08;0.60;;;0.60;;
9418;SDS011;4748;50.802;7.132;2023-05-07T03:20:36;1.60;;;0.70;;
9418;SDS011;4748;50.802;7.132;2023-05-07T03:23:02;1.03;;;0.60;;
9418;SDS011;4748;50.802;7.132;2023-05-07T03:25:28;1.67;;;0.63;;
9418;SDS011;4748;50.802;7.132;2023-05-07T03:27:56;0.63;;;0.63;;
9418;SDS011;4748;50.802;7.132;2023-05-07T03:30:22;0.40;;;0.40;;
9418;SDS011;4748;50.802;7.132;2023-05-07T03:32:47;0.73;;;0.63;;
9418;SDS011;4748;50.802;7.132;2023-05-07T03:35:13;0.73;;;0.73;;
9418;SDS011;4748;50.802;7.132;2023-05-07T03:37:38;1.70;;;0.97;;
9418;SDS011;4748;50.802;7.132;2023-05-07T03:40:04;0.80;;;0.80;;
9418;SDS011;4748;50.802;7.132;2023-05-07T03:42:30;1.63;;;0.97;;
9418;SDS011;4748;50.802;7.132;2023-05-07T03:44:55;0.53;;;0.53;;
9418;SDS011;4748;50.802;7.132;2023-05-07T03:47:21;1.20;;;1.10;;
9418;SDS011;4748;50.802;7.132;2023-05-07T03:49:46;1.67;;;0.93;;
9418;SDS011;4748;50.802;7.132;2023-05-07T03:52:13;7.17;;;1.10;;
9418;SDS011;4748;50.802;7.132;2023-05-07T03:54:39;0.57;;;0.57;;
9418;SDS011;4748;50.802;7.132;2023-05-07T03:57:04;0.60;;;0.60;;
9418;SDS011;4748;50.802;7.132;2023-05-07T03:59:29;2.20;;;0.70;;
9418;SDS011;4748;50.802;7.132;2023-05-07T04:01:55;0.60;;;0.60;;
9418;SDS011;4748;50.802;7.132;2023-05-07T04:04:20;1.20;;;0.70;;
9418;SDS011;4748;50.802;7.132;2023-05-07T04:06:46;0.80;;;0.80;;
9418;SDS011;4748;50.802;7.132;2023-05-07T04:09:11;3.03;;;1.20;;
9418;SDS011;4748;50.802;7.132;2023-05-07T04:11:37;4.00;;;0.90;;
9418;SDS011;4748;50.802;7.132;2023-05-07T04:14:02;0.90;;;0.70;;
9418;SDS011;4748;50.802;7.132;2023-05-07T04:16:34;0.80;;;0.80;;
9418;SDS011;4748;50.802;7.132;2023-05-07T04:19:01;0.77;;;0.73;;
9418;SDS011;4748;50.802;7.132;2023-05-07T04:21:26;0.70;;;0.70;;
9418;SDS011;4748;50.802;7.132;2023-05-07T04:23:52;2.10;;;0.90;;
9418;SDS011;4748;50.802;7.132;2023-05-07T04:26:17;1.20;;;1.10;;
9418;SDS011;4748;50.802;7.132;2023-05-07T04:28:42;0.67;;;0.67;;
9418;SDS011;4748;50.802;7.132;2023-05-07T04:31:08;0.50;;;0.50;;
9418;SDS011;4748;50.802;7.132;2023-05-07T04:33:33;0.50;;;0.50;;
9418;SDS011;4748;50.802;7.132;2023-05-07T04:36:05;1.80;;;0.60;;
9418;SDS011;4748;50.802;7.132;2023-05-07T04:38:31;3.50;;;0.87;;
9418;SDS011;4748;50.802;7.132;2023-05-07T04:40:57;6.87;;;1.10;;
9418;SDS011;4748;50.802;7.132;2023-05-07T04:43:27;0.73;;;0.73;;
9418;SDS011;4748;50.802;7.132;2023-05-07T04:45:52;4.20;;;0.73;;
9418;SDS011;4748;50.802;7.132;2023-05-07T04:48:18;0.60;;;0.60;;
9418;SDS011;4748;50.802;7.132;2023-05-07T04:50:51;2.97;;;0.87;;
9418;SDS011;4748;50.802;7.132;2023-05-07T04:53:17;3.70;;;0.50;;
9418;SDS011;4748;50.802;7.132;2023-05-07T04:55:43;0.93;;;0.70;;
9418;SDS011;4748;50.802;7.132;2023-05-07T04:58:10;1.93;;;0.77;;
9418;SDS011;4748;50.802;7.132;2023-05-07T05:00:40;1.43;;;0.60;;
9418;SDS011;4748;50.802;7.132;2023-05-07T05:03:07;2.97;;;0.60;;
9418;SDS011;4748;50.802;7.132;2023-05-07T05:05:32;0.60;;;0.53;;
9418;SDS011;4748;50.802;7.132;2023-05-07T05:07:58;0.60;;;0.50;;
9418;SDS011;4748;50.802;7.132;2023-05-07T05:10:23;0.60;;;0.60;;
9418;SDS011;4748;50.802;7.132;2023-05-07T05:12:49;0.50;;;0.50;;
9418;SDS011;4748;50.802;7.132;2023-05-07T05:15:14;1.80;;;1.13;;
9418;SDS011;4748;50.802;7.132;2023-05-07T05:17:40;1.40;;;0.80;;
9418;SDS011;4748;50.802;7.132;2023-05-07T05:20:07;0.70;;;0.70;;
9418;SDS011;4748;50.802;7.132;2023-05-07T05:22:35;1.57;;;1.00;;
9418;SDS011;4748;50.802;7.132;2023-05-07T05:25:02;0.70;;;0.63;;
9418;SDS011;4748;50.802;7.132;2023-05-07T05:27:28;1.37;;;0.70;;
9418;SDS011;4748;50.802;7.132;2023-05-07T05:29:53;0.63;;;0.63;;
9418;SDS011;4748;50.802;7.132;2023-05-07T05:32:19;0.60;;;0.60;;
9418;SDS011;4748;50.802;7.132;2023-05-07T05:34:44;0.67;;;0.60;;
9418;SDS011;4748;50.802;7.132;2023-05-07T05:37:11;2.57;;;0.70;;
9418;SDS011;4748;50.802;7.132;2023-05-07T05:39:40;0.50;;;0.50;;
9418;SDS011;4748;50.802;7.132;2023-05-07T05:42:05;0.70;;;0.70;;
9418;SDS011;4748;50.802;7.132;2023-05-07T05:44:34;0.63;;;0.63;;
9418;SDS011;4748;50.802;7.132;2023-05-07T05:47:00;1.33;;;0.77;;
9418;SDS011;4748;50.802;7.132;2023-05-07T05:49:25;1.37;;;0.80;;
9418;SDS011;4748;50.802;7.132;2023-05-07T05:51:50;4.00;;;0.67;;
9418;SDS011;4748;50.802;7.132;2023-05-07T05:54:16;1.33;;;0.60;;
9418;SDS011;4748;50.802;7.132;2023-05-07T05:56:41;0.60;;;0.60;;
9418;SDS011;4748;50.802;7.132;2023-05-07T05:59:08;0.83;;;0.83;;
9418;SDS011;4748;50.802;7.132;2023-05-07T06:01:34;0.77;;;0.50;;
9418;SDS011;4748;50.802;7.132;2023-05-07T06:03:59;0.50;;;0.50;;
9418;SDS011;4748;50.802;7.132;2023-05-07T06:06:24;0.50;;;0.50;;
9418;SDS011;4748;50.802;7.132;2023-05-07T06:08:50;7.27;;;0.50;;
9418;SDS011;4748;50.802;7.132;2023-05-07T06:11:16;1.17;;;0.67;;
9418;SDS011;4748;50.802;7.132;2023-05-07T06:13:41;0.60;;;0.60;;
9418;SDS011;4748;50.802;7.132;2023-05-07T06:16:07;0.60;;;0.60;;
9418;SDS011;4748;50.802;7.132;2023-05-07T06:18:33;0.60;;;0.60;;
9418;SDS011;4748;50.802;7.132;2023-05-07T06:21:00;0.50;;;0.50;;
9418;SDS011;4748;50.802;7.132;2023-05-07T06:23:26;1.27;;;0.63;;
9418;SDS011;4748;50.802;7.132;2023-05-07T06:25:51;0.73;;;0.70;;
9418;SDS011;4748;50.802;7.132;2023-05-07T06:28:17;1.33;;;0.60;;
9418;SDS011;4748;50.802;7.132;2023-05-07T06:30:42;0.50;;;0.50;;
9418;SDS011;4748;50.802;7.132;2023-05-07T06:33:08;1.03;;;0.50;;
9418;SDS011;4748;50.802;7.132;2023-05-07T06:35:33;1.03;;;0.40;;
9418;SDS011;4748;50.802;7.132;2023-05-07T06:37:59;0.70;;;0.60;;
9418;SDS011;4748;50.802;7.132;2023-05-07T06:40:25;0.50;;;0.50;;
9418;SDS011;4748;50.802;7.132;2023-05-07T06:42:50;0.87;;;0.80;;
9418;SDS011;4748;50.802;7.132;2023-05-07T06:45:16;0.60;;;0.60;;
9418;SDS011;4748;50.802;7.132;2023-05-07T06:47:41;0.47;;;0.47;;
9418;SDS011;4748;50.802;7.132;2023-05-07T06:50:07;0.43;;;0.43;;
9418;SDS011;4748;50.802;7.132;2023-05-07T06:52:32;2.20;;;0.40;;
9418;SDS011;4748;50.802;7.132;2023-05-07T06:54:58;0.43;;;0.43;;
9418;SDS011;4748;50.802;7.132;2023-05-07T06:57:23;0.77;;;0.50;;
9418;SDS011;4748;50.802;7.132;2023-05-07T06:59:49;0.97;;;0.97;;
9418;SDS011;4748;50.802;7.132;2023-05-07T07:02:14;0.73;;;0.73;;
9418;SDS011;4748;50.802;7.132;2023-05-07T07:04:40;0.57;;;0.40;;
9418;SDS011;4748;50.802;7.132;2023-05-07T07:07:06;0.60;;;0.60;;
9418;SDS011;4748;50.802;7.132;2023-05-07T07:09:32;0.40;;;0.40;;
9418;SDS011;4748;50.802;7.132;2023-05-07T07:11:57;0.50;;;0.43;;
9418;SDS011;4748;50.802;7.132;2023-05-07T07:14:22;0.70;;;0.70;;
9418;SDS011;4748;50.802;7.132;2023-05-07T07:16:48;0.40;;;0.40;;
9418;SDS011;4748;50.802;7.132;2023-05-07T07:19:13;0.70;;;0.47;;
9418;SDS011;4748;50.802;7.132;2023-05-07T07:21:40;2.53;;;0.70;;
9418;SDS011;4748;50.802;7.132;2023-05-07T07:24:06;2.27;;;0.60;;
9418;SDS011;4748;50.802;7.132;2023-05-07T07:26:31;0.73;;;0.50;;
9418;SDS011;4748;50.802;7.132;2023-05-07T07:28:57;0.30;;;0.30;;
9418;SDS011;4748;50.802;7.132;2023-05-07T07:31:22;4.50;;;1.43;;
9418;SDS011;4748;50.802;7.132;2023-05-07T07:33:48;1.43;;;0.40;;
9418;SDS011;4748;50.802;7.132;2023-05-07T07:36:15;0.50;;;0.50;;
9418;SDS011;4748;50.802;7.132;2023-05-07T07:38:40;0.70;;;0.70;;
9418;SDS011;4748;50.802;7.132;2023-05-07T07:41:07;1.20;;;0.60;;
9418;SDS011;4748;50.802;7.132;2023-05-07T07:43:33;0.87;;;0.87;;
9418;SDS011;4748;50.802;7.132;2023-05-07T07:45:58;3.13;;;0.50;;
9418;SDS011;4748;50.802;7.132;2023-05-07T07:48:23;4.13;;;0.50;;
9418;SDS011;4748;50.802;7.132;2023-05-07T07:50:49;0.43;;;0.43;;
9418;SDS011;4748;50.802;7.132;2023-05-07T07:53:35;0.40;;;0.40;;
9418;SDS011;4748;50.802;7.132;2023-05-07T07:56:00;0.40;;;0.40;;
9418;SDS011;4748;50.802;7.132;2023-05-07T07:58:30;1.45;;;0.60;;
9418;SDS011;4748;50.802;7.132;2023-05-07T08:00:55;2.37;;;0.50;;
9418;SDS011;4748;50.802;7.132;2023-05-07T08:03:27;1.15;;;0.70;;
9418;SDS011;4748;50.802;7.132;2023-05-07T08:06:00;0.40;;;0.40;;
9418;SDS011;4748;50.802;7.132;2023-05-07T08:08:25;0.50;;;0.50;;
9418;SDS011;4748;50.802;7.132;2023-05-07T08:10:51;0.50;;;0.50;;
9418;SDS011;4748;50.802;7.132;2023-05-07T08:13:17;0.73;;;0.60;;
9418;SDS011;4748;50.802;7.132;2023-05-07T08:15:42;4.10;;;0.68;;
9418;SDS011;4748;50.802;7.132;2023-05-07T08:18:08;0.60;;;0.60;;
9418;SDS011;4748;50.802;7.132;2023-05-07T08:20:36;0.35;;;0.35;;
9418;SDS011;4748;50.802;7.132;2023-05-07T08:23:04;0.45;;;0.45;;
9418;SDS011;4748;50.802;7.132;2023-05-07T08:25:32;0.45;;;0.45;;
9418;SDS011;4748;50.802;7.132;2023-05-07T08:28:01;0.63;;;0.50;;
9418;SDS011;4748;50.802;7.132;2023-05-07T08:30:28;2.20;;;0.63;;
9418;SDS011;4748;50.802;7.132;2023-05-07T08:32:59;1.65;;;0.47;;
9418;SDS011;4748;50.802;7.132;2023-05-07T08:35:25;0.52;;;0.50;;
9418;SDS011;4748;50.802;7.132;2023-05-07T08:37:52;0.70;;;0.70;;
9418;SDS011;4748;50.802;7.132;2023-05-07T08:40:17;0.47;;;0.47;;
9418;SDS011;4748;50.802;7.132;2023-05-07T08:42:42;2.05;;;0.50;;
9418;SDS011;4748;50.802;7.132;2023-05-07T08:45:09;0.45;;;0.45;;
9418;SDS011;4748;50.802;7.132;2023-05-07T08:47:40;1.85;;;0.77;;
9418;SDS011;4748;50.802;7.132;2023-05-07T08:50:11;0.60;;;0.60;;
9418;SDS011;4748;50.802;7.132;2023-05-07T08:52:37;2.90;;;0.70;;
9418;SDS011;4748;50.802;7.132;2023-05-07T08:55:04;0.55;;;0.40;;
9418;SDS011;4748;50.802;7.132;2023-05-07T08:57:31;6.15;;;0.50;;
9418;SDS011;4748;50.802;7.132;2023-05-07T08:59:56;4.93;;;0.60;;
9418;SDS011;4748;50.802;7.132;2023-05-07T09:02:22;0.47;;;0.47;;
9418;SDS011;4748;50.802;7.132;2023-05-07T09:04:47;0.40;;;0.40;;
9418;SDS011;4748;50.802;7.132;2023-05-07T09:07:12;0.55;;;0.55;;
9418;SDS011;4748;50.802;7.132;2023-05-07T09:09:38;0.63;;;0.55;;
9418;SDS011;4748;50.802;7.132;2023-05-07T09:12:03;0.60;;;0.60;;
9418;SDS011;4748;50.802;7.132;2023-05-07T09:14:29;0.40;;;0.40;;
9418;SDS011;4748;50.802;7.132;2023-05-07T09:16:55;0.50;;;0.50;;
9418;SDS011;4748;50.802;7.132;2023-05-07T09:19:24;0.82;;;0.50;;
9418;SDS011;4748;50.802;7.132;2023-05-07T09:22:04;0.70;;;0.70;;
9418;SDS011;4748;50.802;7.132;2023-05-07T09:24:31;0.55;;;0.55;;
9418;SDS011;4748;50.802;7.132;2023-05-07T09:27:03;1.55;;;0.73;;
9418;SDS011;4748;50.802;7.132;2023-05-07T09:29:29;1.77;;;0.70;;
9418;SDS011;4748;50.802;7.132;2023-05-07T09:32:00;1.60;;;0.57;;
9418;SDS011;4748;50.802;7.132;2023-05-07T09:34:26;0.63;;;0.63;;
9418;SDS011;4748;50.802;7.132;2023-05-07T09:36:52;3.58;;;0.52;;
9418;SDS011;4748;50.802;7.132;2023-05-07T09:39:18;0.75;;;0.60;;
9418;SDS011;4748;50.802;7.132;2023-05-07T09:41:45;1.02;;;0.70;;
9418;SDS011;4748;50.802;7.132;2023-05-07T09:44:14;0.60;;;0.60;;
9418;SDS011;4748;50.802;7.132;2023-05-07T09:46:41;0.47;;;0.47;;
9418;SDS011;4748;50.802;7.132;2023-05-07T09:49:12;0.35;;;0.35;;
9418;SDS011;4748;50.802;7.132;2023-05-07T09:51:50;0.50;;;0.50;;
9418;SDS011;4748;50.802;7.132;2023-05-07T09:54:17;0.63;;;0.40;;
9418;SDS011;4748;50.802;7.132;2023-05-07T09:56:44;0.95;;;0.52;;
9418;SDS011;4748;50.802;7.132;2023-05-07T09:59:10;0.65;;;0.65;;
9418;SDS011;4748;50.802;7.132;2023-05-07T10:01:40;1.65;;;0.45;;
9418;SDS011;4748;50.802;7.132;2023-05-07T10:04:07;0.40;;;0.40;;
9418;SDS011;4748;50.802;7.132;2023-05-07T10:06:36;0.50;;;0.50;;
9418;SDS011;4748;50.802;7.132;2023-05-07T10:09:03;1.75;;;0.70;;
9418;SDS011;4748;50.802;7.132;2023-05-07T10:11:30;0.57;;;0.40;;
9418;SDS011;4748;50.802;7.132;2023-05-07T10:13:58;1.23;;;1.17;;
9418;SDS011;4748;50.802;7.132;2023-05-07T10:16:26;0.90;;;0.90;;
9418;SDS011;4748;50.802;7.132;2023-05-07T10:18:57;0.50;;;0.50;;
9418;SDS011;4748;50.802;7.132;2023-05-07T10:21:23;0.82;;;0.60;;
9418;SDS011;4748;50.802;7.132;2023-05-07T10:23:51;0.60;;;0.60;;
9418;SDS011;4748;50.802;7.132;2023-05-07T10:26:33;3.40;;;0.80;;
9418;SDS011;4748;50.802;7.132;2023-05-07T10:29:05;0.50;;;0.50;;
9418;SDS011;4748;50.802;7.132;2023-05-07T10:34:16;3.35;;;0.60;;
9418;SDS011;4748;50.802;7.132;2023-05-07T10:36:47;0.57;;;0.57;;
9418;SDS011;4748;50.802;7.132;2023-05-07T10:39:13;0.47;;;0.47;;
9418;SDS011;4748;50.802;7.132;2023-05-07T10:41:39;0.52;;;0.52;;
9418;SDS011;4748;50.802;7.132;2023-05-07T10:44:04;0.60;;;0.60;;
9418;SDS011;4748;50.802;7.132;2023-05-07T10:46:29;1.38;;;0.60;;
9418;SDS011;4748;50.802;7.132;2023-05-07T10:51:34;0.52;;;0.52;;
9418;SDS011;4748;50.802;7.132;2023-05-07T10:56:34;1.08;;;0.50;;
9418;SDS011;4748;50.802;7.132;2023-05-07T11:02:07;0.57;;;0.52;;
9418;SDS011;4748;50.802;7.132;2023-05-07T11:04:34;3.17;;;0.40;;
9418;SDS011;4748;50.802;7.132;2023-05-07T11:15:08;0.77;;;0.77;;
9418;SDS011;4748;50.802;7.132;2023-05-07T11:17:34;0.55;;;0.50;;
9418;SDS011;4748;50.802;7.132;2023-05-07T11:20:16;0.60;;;0.60;;
9418;SDS011;4748;50.802;7.132;2023-05-07T11:22:42;0.55;;;0.55;;
9418;SDS011;4748;50.802;7.132;2023-05-07T11:25:07;0.95;;;0.60;;
9418;SDS011;4748;50.802;7.132;2023-05-07T11:27:33;0.60;;;0.60;;
9418;SDS011;4748;50.802;7.132;2023-05-07T11:29:59;0.60;;;0.50;;
9418;SDS011;4748;50.802;7.132;2023-05-07T11:32:26;0.60;;;0.50;;
9418;SDS011;4748;50.802;7.132;2023-05-07T11:34:57;0.55;;;0.55;;
9418;SDS011;4748;50.802;7.132;2023-05-07T11:37:23;0.55;;;0.55;;
9418;SDS011;4748;50.802;7.132;2023-05-07T11:39:50;0.90;;;0.40;;
9418;SDS011;4748;50.802;7.132;2023-05-07T11:42:33;0.40;;;0.40;;
9418;SDS011;4748;50.802;7.132;2023-05-07T11:44:59;0.47;;;0.47;;
9418;SDS011;4748;50.802;7.132;2023-05-07T11:47:29;0.40;;;0.40;;
9418;SDS011;4748;50.802;7.132;2023-05-07T11:49:55;0.50;;;0.50;;
9418;SDS011;4748;50.802;7.132;2023-05-07T11:52:22;2.55;;;0.40;;
9418;SDS011;4748;50.802;7.132;2023-05-07T11:54:56;0.40;;;0.40;;
9418;SDS011;4748;50.802;7.132;2023-05-07T11:57:24;0.52;;;0.50;;
9418;SDS011;4748;50.802;7.132;2023-05-07T11:59:53;0.50;;;0.50;;
9418;SDS011;4748;50.802;7.132;2023-05-07T12:02:22;1.33;;;0.50;;
9418;SDS011;4748;50.802;7.132;2023-05-07T12:04:50;0.80;;;0.80;;
9418;SDS011;4748;50.802;7.132;2023-05-07T12:07:16;0.60;;;0.60;;
9418;SDS011;4748;50.802;7.132;2023-05-07T12:09:42;0.77;;;0.40;;
9418;SDS011;4748;50.802;7.132;2023-05-07T12:12:08;0.47;;;0.47;;
9418;SDS011;4748;50.802;7.132;2023-05-07T12:14:38;0.32;;;0.32;;
9418;SDS011;4748;50.802;7.132;2023-05-07T12:17:04;0.38;;;0.38;;
9418;SDS011;4748;50.802;7.132;2023-05-07T12:19:30;2.20;;;0.50;;
9418;SDS011;4748;50.802;7.132;2023-05-07T12:21:56;0.50;;;0.50;;
9418;SDS011;4748;50.802;7.132;2023-05-07T12:24:22;0.63;;;0.60;;
9418;SDS011;4748;50.802;7.132;2023-05-07T12:26:48;0.60;;;0.47;;
9418;SDS011;4748;50.802;7.132;2023-05-07T12:29:14;0.90;;;0.50;;
9418;SDS011;4748;50.802;7.132;2023-05-07T12:31:42;0.30;;;0.30;;
9418;SDS011;4748;50.802;7.132;2023-05-07T12:34:08;0.57;;;0.57;;
9418;SDS011;4748;50.802;7.132;2023-05-07T12:36:39;0.80;;;0.38;;
9418;SDS011;4748;50.802;7.132;2023-05-07T12:39:08;0.50;;;0.50;;
9418;SDS011;4748;50.802;7.132;2023-05-07T12:44:22;0.77;;;0.40;;
9418;SDS011;4748;50.802;7.132;2023-05-07T12:46:48;0.60;;;0.60;;
9418;SDS011;4748;50.802;7.132;2023-05-07T12:49:14;2.15;;;0.40;;
9418;SDS011;4748;50.802;7.132;2023-05-07T12:51:39;0.40;;;0.40;;
9418;SDS011;4748;50.802;7.132;2023-05-07T12:54:05;1.30;;;0.40;;
9418;SDS011;4748;50.802;7.132;2023-05-07T12:56:35;1.10;;;0.60;;
9418;SDS011;4748;50.802;7.132;2023-05-07T12:59:04;0.45;;;0.45;;
9418;SDS011;4748;50.802;7.132;2023-05-07T13:01:30;0.40;;;0.40;;
9418;SDS011;4748;50.802;7.132;2023-05-07T13:04:05;0.50;;;0.50;;
9418;SDS011;4748;50.802;7.132;2023-05-07T13:06:31;2.00;;;0.82;;
9418;SDS011;4748;50.802;7.132;2023-05-07T13:08:56;2.78;;;0.75;;
9418;SDS011;4748;50.802;7.132;2023-05-07T13:11:22;0.30;;;0.30;;
9418;SDS011;4748;50.802;7.132;2023-05-07T13:13:47;0.35;;;0.35;;
9418;SDS011;4748;50.802;7.132;2023-05-07T13:16:13;2.65;;;0.60;;
9418;SDS011;4748;50.802;7.132;2023-05-07T13:18:39;0.47;;;0.47;;
9418;SDS011;4748;50.802;7.132;2023-05-07T13:21:05;0.57;;;0.57;;
9418;SDS011;4748;50.802;7.132;2023-05-07T13:23:31;0.65;;;0.40;;
9418;SDS011;4748;50.802;7.132;2023-05-07T13:25:56;0.60;;;0.60;;
9418;SDS011;4748;50.802;7.132;2023-05-07T13:28:23;0.70;;;0.70;;
9418;SDS011;4748;50.802;7.132;2023-05-07T13:30:51;0.85;;;0.65;;
9418;SDS011;4748;50.802;7.132;2023-05-07T13:33:17;0.68;;;0.60;;
9418;SDS011;4748;50.802;7.132;2023-05-07T13:35:43;1.17;;;0.57;;
9418;SDS011;4748;50.802;7.132;2023-05-07T13:38:09;0.65;;;0.65;;
9418;SDS011;4748;50.802;7.132;2023-05-07T13:40:34;0.40;;;0.40;;
9418;SDS011;4748;50.802;7.132;2023-05-07T13:42:59;0.85;;;0.85;;
9418;SDS011;4748;50.802;7.132;2023-05-07T13:45:27;0.50;;;0.50;;
9418;SDS011;4748;50.802;7.132;2023-05-07T13:47:54;5.65;;;0.70;;
9418;SDS011;4748;50.802;7.132;2023-05-07T13:50:20;0.93;;;0.85;;
9418;SDS011;4748;50.802;7.132;2023-05-07T13:52:46;0.60;;;0.60;;
9418;SDS011;4748;50.802;7.132;2023-05-07T13:55:18;0.65;;;0.65;;
9418;SDS011;4748;50.802;7.132;2023-05-07T13:57:44;1.92;;;0.60;;
9418;SDS011;4748;50.802;7.132;2023-05-07T14:00:10;0.50;;;0.50;;
9418;SDS011;4748;50.802;7.132;2023-05-07T14:02:36;0.60;;;0.60;;
9418;SDS011;4748;50.802;7.132;2023-05-07T14:05:02;0.63;;;0.63;;
9418;SDS011;4748;50.802;7.132;2023-05-07T14:07:27;0.85;;;0.65;;
9418;SDS011;4748;50.802;7.132;2023-05-07T14:09:54;0.80;;;0.80;;
9418;SDS011;4748;50.802;7.132;2023-05-07T14:12:20;0.50;;;0.50;;
9418;SDS011;4748;50.802;7.132;2023-05-07T14:14:45;2.63;;;1.00;;
9418;SDS011;4748;50.802;7.132;2023-05-07T14:17:11;0.75;;;0.60;;
9418;SDS011;4748;50.802;7.132;2023-05-07T14:19:37;0.50;;;0.50;;
9418;SDS011;4748;50.802;7.132;2023-05-07T14:22:03;3.83;;;0.80;;
9418;SDS011;4748;50.802;7.132;2023-05-07T14:24:28;2.35;;;0.55;;
9418;SDS011;4748;50.802;7.132;2023-05-07T14:26:53;0.80;;;0.77;;
9418;SDS011;4748;50.802;7.132;2023-05-07T14:29:19;0.60;;;0.60;;
9418;SDS011;4748;50.802;7.132;2023-05-07T14:31:45;0.75;;;0.75;;
9418;SDS011;4748;50.802;7.132;2023-05-07T14:34:11;0.63;;;0.63;;
9418;SDS011;4748;50.802;7.132;2023-05-07T14:36:36;0.93;;;0.65;;
9418;SDS011;4748;50.802;7.132;2023-05-07T14:39:02;3.08;;;1.00;;
9418;SDS011;4748;50.802;7.132;2023-05-07T14:41:28;0.73;;;0.73;;
9418;SDS011;4748;50.802;7.132;2023-05-07T14:43:53;1.08;;;1.00;;
9418;SDS011;4748;50.802;7.132;2023-05-07T14:46:19;0.90;;;0.90;;
9418;SDS011;4748;50.802;7.132;2023-05-07T14:48:45;3.50;;;1.85;;
9418;SDS011;4748;50.802;7.132;2023-05-07T14:51:13;1.23;;;1.23;;
9418;SDS011;4748;50.802;7.132;2023-05-07T14:53:42;1.98;;;1.08;;
9418;SDS011;4748;50.802;7.132;2023-05-07T14:56:08;3.72;;;1.45;;
9418;SDS011;4748;50.802;7.132;2023-05-07T14:58:33;1.02;;;1.00;;
9418;SDS011;4748;50.802;7.132;2023-05-07T15:00:59;1.23;;;1.10;;
9418;SDS011;4748;50.802;7.132;2023-05-07T15:03:25;0.80;;;0.80;;
9418;SDS011;4748;50.802;7.132;2023-05-07T15:05:51;4.70;;;0.70;;
9418;SDS011;4748;50.802;7.132;2023-05-07T15:08:16;0.50;;;0.50;;
9418;SDS011;4748;50.802;7.132;2023-05-07T15:10:42;0.40;;;0.40;;
9418;SDS011;4748;50.802;7.132;2023-05-07T15:13:09;0.63;;;0.63;;
9418;SDS011;4748;50.802;7.132;2023-05-07T15:15:41;0.40;;;0.40;;
9418;SDS011;4748;50.802;7.132;2023-05-07T15:18:06;0.40;;;0.40;;
9418;SDS011;4748;50.802;7.132;2023-05-07T15:20:32;0.40;;;0.40;;
9418;SDS011;4748;50.802;7.132;2023-05-07T15:22:57;0.50;;;0.50;;
9418;SDS011;4748;50.802;7.132;2023-05-07T15:25:23;0.50;;;0.50;;
9418;SDS011;4748;50.802;7.132;2023-05-07T15:27:48;0.50;;;0.50;;
9418;SDS011;4748;50.802;7.132;2023-05-07T15:30:15;0.35;;;0.35;;
9418;SDS011;4748;50.802;7.132;2023-05-07T15:32:40;0.47;;;0.43;;